AirNav   Phillips 66 Aviation Fuel
 
 1047 users online  

4J5 Quitman Brooks County Airport
Quitman, Georgia, USA

GOING TO QUITMAN?


FAA INFORMATION EFFECTIVE 23 MAY 2019

Location

FAA Identifier: 4J5
Lat/Long: 30-48-18.6600N / 083-35-20.6402W
30-48.311000N / 083-35.344003W
30.8051833 / -83.5890667
(estimated)
Elevation: 184.8 ft. / 56.3 m (surveyed)
Variation: 05W (2010)
From city: 2 miles NW of QUITMAN, GA
Time zone: UTC -4 (UTC -5 during Standard Time)
Zip code: 31643

Airport Operations

Airport use: Open to the public
Activation date: 01/1947
Control tower: no
ARTCC: JACKSONVILLE CENTER
FSS: MACON FLIGHT SERVICE STATION
NOTAMs facility: MCN (NOTAM-D service available)
Attendance: UNATTENDED
Wind indicator: yes
Segmented circle: yes
Lights: ACTVT MIRL RY 10/28 & PAPI RY 10 & 28- CTAF.
Beacon: NO AIRPORT BEACON

Airport Communications

CTAF: 122.9
VALDOSTA APPROACH: 126.6 ;EAST OF VAD R-360 - R-180 RAD 132.375 ;WEST OF VAD R-360 RADIAL
VALDOSTA DEPARTURE: 126.6 ;EAST OF VAD R-360 - R-180 RAD 132.375 ;WEST OF VAD R-360 RADIAL
IC: 126.6 ;EAST OF VAD R-360 - R-180 RAD
WX AWOS-3PT at TVI (16 nm W): 119.175 (229-225-4336)
WX ASOS at VLD (16 nm E): 126.225 (229-245-8746)
  • APCH/DEP SVC PRVDD BY JACKSONVILLE ARTCC ON FREQS 133.7/323.3 (VALDOSTA RCAG) WHEN VALDOSTA APCH CTL CLSD.

Nearby radio navigation aids

VOR radial/distance  VOR name  Freq  Var
OTKr277/16.0VALDOSTA VOR/DME114.8002W
GEFr032/18.2GREENVILLE VORTAC109.0001E
IFMr189/(37.8)TIFT MYERS VOR112.5001W

 
NDB name  Hdg/Dist  Freq  Var  ID
PATON132/15.324505WGTP --. - .--.
CAIDY104/29.833804WCYR -.-. -.-- .-.

Airport Services

Parking: tiedowns
Airframe service: NONE
Powerplant service: NONE
Bottled oxygen: NONE
Bulk oxygen: NONE

Runway Information

Runway 10/28

Dimensions: 5000 x 76 ft. / 1524 x 23 m
Surface: asphalt, in good condition
Runway edge lights: medium intensity
RUNWAY 10  RUNWAY 28
Latitude: 30-48.337667N30-48.284468N
Longitude: 083-35.820667W083-34.867338W
Elevation: 177.3 ft.184.8 ft.
Traffic pattern: leftleft
Markings: nonprecision, in fair conditionnonprecision, in fair condition
Visual slope indicator: 2-light PAPI on left (3.00 degrees glide path)2-light PAPI on left (3.40 degrees glide path)
Touchdown point: yes, no lightsyes, no lights
Obstructions: 26 ft. trees, 278 ft. from runway, 260 ft. left of centerline, 3:1 slope to clear
3 FT-10 FT TREES 100 FT RIGHT FM 0-200 FM END OF RWY.
66 ft. trees, 860 ft. from runway, 330 ft. left of centerline, 10:1 slope to clear
4 FT HI GND 100 FT RIGHT 0 FT-200 FT FM END OF RWY.

Airport Ownership and Management from official FAA records

Ownership: Publicly-owned
Owner: CITY OF QUITMAN / BROOKS COUNTY
610 SOUTH HIGHLAND RD
QUITMAN, GA 31643
Phone 229-263-5561
Manager: KENNY BAKER, CMN A/P AUTH
5599 OLD MADISON RD
QUITMAN, GA 31643
Phone (229) 560-2515
ALTERNATE PHONE: 229-560-2515

Airport Operational Statistics

Aircraft based on the field: 14
Single engine airplanes: 7
Gliders airplanes: 3
Ultralights: 4
    
Aircraft operations: avg 21/day *
73% local general aviation
27% transient general aviation
* for 12-month period ending 31 December 2018

Additional Remarks

WILDLIFE ON & INVOF ARPT.
GLIDER OPNS ON WKEND.

Instrument Procedures

NOTE: All procedures below are presented as PDF files. If you need a reader for these files, you should download the free Adobe Reader.

NOT FOR NAVIGATION. Please procure official charts for flight.
FAA instrument procedures published for use from 23 May 2019 at 0901Z to 20 June 2019 at 0900Z.

 
IAPs - Instrument Approach Procedures
RNAV (GPS) RWY 10   download (195KB)
RNAV (GPS) RWY 28   download (185KB)
NOTE: Special Take-Off Minimums/Departure Procedures apply   download (189KB)

Other nearby airports with instrument procedures:

KTVI - Thomasville Regional Airport (16 nm W)
KVLD - Valdosta Regional Airport (16 nm E)
KMGR - Moultrie Municipal Airport (20 nm NW)
15J - Cook County Airport (21 nm N)
KVAD - Moody Air Force Base (23 nm NE)
 
Loc | Ops | Rwys | IFR | FBO | Links
Com | Nav | Svcs | Stats | Notes
Area around 4J5 (Quitman Brooks County Airport)
 
Road maps at: MapQuest Bing Google
 
Aerial photo
WARNING: Photo may not be current or correct
Aerial photo of 4J5 (Quitman Brooks County Airport)
Photo taken 15-Sep-2006

Do you have a better or more recent aerial photo of Quitman Brooks County Airport that you would like to share? If so, please send us your photo.

 
Sectional chart

 
Airport distance calculator
Flying to Quitman Brooks County Airport? Find the distance to fly.

From to 4J5

Sunrise and sunset
Times for 17-Jun-2019
 Local
(UTC-4)
 Zulu
(UTC)
Morning civil twilight06:0410:04
Sunrise06:3210:32
Sunset20:3800:38
Evening civil twilight21:0601:06

Current date and time
Zulu (UTC)  18-Jun-2019 01:22:39
Local (UTC-4)  17-Jun-2019 21:22:39
 
METAR
KTVI 
16nm W 
180055Z AUTO 18005KT 10SM DZ SCT060 SCT070 BKN120 23/22 A3004 RMK AO2
KVLD 
17nm E 
180053Z 16006KT 10SM CLR 25/22 A3004 RMK AO2 SLP178 T02500217
KMGR 
20nm NW 
180055Z AUTO 15004KT 10SM CLR 25/21 A3004 RMK AO2
KVAD 
22nm NE 
180056Z AUTO 17005KT 10SM CLR 25/23 A3003 RMK AO2 SLP169 T02530229 $
TAF
KVLD 
17nm E 
171720Z 1718/1818 18006KT P6SM SCT040 FM172000 15006KT P6SM VCTS BKN050CB BKN250 FM180000 16004KT P6SM BKN100 FM181700 22005KT P6SM VCTS BKN040CB
NOTAMs
Click for the latest NOTAMs
NOTAMs are issued by the DoD/FAA and will open in a separate window not controlled by AirNav.

 

 
 

Would you like to see your business listed on this page?

 If your business provides an interesting product or service to pilots, flight crews, aircraft, or users of the Quitman Brooks County Airport, you should consider listing it here.  To start the listing process, click on the button below
 
Add a business
 

Other Pages about Quitman Brooks County Airport

Update a link
 
Copyright © AirNav, LLC. All rights reserved. Privacy Policy  Contact